RYR847T LKPR-EBCI
Flight info
| Callsign | RYR847T |
|---|---|
| Flight time | 1h 6m |
| Altitude | 36000 |
| Route | BALTU DCT DONAD DCT RAPET Z93 KODUK DCT MARZA DCT TEKTU DCT TESGA DCT UMUPU T880 BATTY |
| Aircraft | B738/M-SDE2E3FGHIRWXY/LB1 |
Departure
| Time | 2026-05-06 20:12 |
|---|---|
| Airport | Václav Havel Airport Prague (LKPR) |
Arrival
| Time | 2026-05-06 21:19 |
|---|---|
| Airport | Brussels South Charleroi Airport (EBCI) |
| Time | Latitude | Longitude | Altitude | Speed | Heading |
|---|---|---|---|---|---|
| 2026-05-06 19:48 | 50.10680 | 14.26005 | 1175 ft | 0 kts | 124° |
| 2026-05-06 19:57 | 50.10677 | 14.26011 | 1173 ft | 3 kts | 124° |
| 2026-05-06 19:57 | 50.10653 | 14.26061 | 1176 ft | 6 kts | 136° |
| 2026-05-06 19:57 | 50.10612 | 14.26054 | 1175 ft | 7 kts | 208° |
| 2026-05-06 19:58 | 50.10572 | 14.26015 | 1173 ft | 7 kts | 213° |
| 2026-05-06 19:58 | 50.10538 | 14.25967 | 1181 ft | 7 kts | 237° |
| 2026-05-06 19:58 | 50.10536 | 14.25900 | 1182 ft | 7 kts | 295° |
| 2026-05-06 19:58 | 50.10564 | 14.25832 | 1182 ft | 8 kts | 303° |
| 2026-05-06 19:59 | 50.10592 | 14.25765 | 1182 ft | 7 kts | 302° |
| 2026-05-06 19:59 | 50.10600 | 14.25742 | 1180 ft | 0 kts | 299° |
| 2026-05-06 19:59 | 50.10603 | 14.25735 | 1175 ft | 3 kts | 300° |
| 2026-05-06 19:59 | 50.10614 | 14.25704 | 1179 ft | 2 kts | 298° |
| 2026-05-06 20:00 | 50.10615 | 14.25702 | 1180 ft | 0 kts | 298° |
| 2026-05-06 20:02 | 50.10618 | 14.25693 | 1177 ft | 3 kts | 299° |
| 2026-05-06 20:02 | 50.10639 | 14.25628 | 1178 ft | 8 kts | 289° |
| 2026-05-06 20:03 | 50.10631 | 14.25557 | 1175 ft | 4 kts | 233° |
| 2026-05-06 20:03 | 50.10628 | 14.25550 | 1177 ft | 0 kts | 231° |
| 2026-05-06 20:03 | 50.10627 | 14.25549 | 1173 ft | 2 kts | 231° |
| 2026-05-06 20:04 | 50.10614 | 14.25522 | 1177 ft | 0 kts | 238° |
| 2026-05-06 20:07 | 50.10613 | 14.25519 | 1175 ft | 2 kts | 238° |
| 2026-05-06 20:07 | 50.10598 | 14.25460 | 1172 ft | 11 kts | 255° |
| 2026-05-06 20:08 | 50.10586 | 14.25374 | 1174 ft | 0 kts | 258° |
| 2026-05-06 20:08 | 50.10586 | 14.25370 | 1175 ft | 1 kts | 258° |
| 2026-05-06 20:09 | 50.10581 | 14.25327 | 1172 ft | 7 kts | 261° |
| 2026-05-06 20:09 | 50.10576 | 14.25284 | 1173 ft | 0 kts | 259° |
| 2026-05-06 20:10 | 50.10574 | 14.25275 | 1169 ft | 3 kts | 258° |
| 2026-05-06 20:10 | 50.10565 | 14.25203 | 1172 ft | 10 kts | 256° |
| 2026-05-06 20:10 | 50.10520 | 14.25129 | 1169 ft | 11 kts | 172° |
| 2026-05-06 20:10 | 50.10492 | 14.25172 | 1172 ft | 0 kts | 127° |
| 2026-05-06 20:11 | 50.10489 | 14.25179 | 1171 ft | 6 kts | 127° |
| 2026-05-06 20:11 | 50.10333 | 14.25502 | 1181 ft | 71 kts | 127° |
| 2026-05-06 20:11 | 50.09904 | 14.26390 | 1204 ft | 131 kts | 127° |
| 2026-05-06 20:12 | 50.09283 | 14.27679 | 1436 ft | 157 kts | 127° |
| 2026-05-06 20:12 | 50.08597 | 14.29023 | 2080 ft | 161 kts | 128° |
| 2026-05-06 20:12 | 50.07903 | 14.30468 | 2663 ft | 172 kts | 128° |
| 2026-05-06 20:12 | 50.07204 | 14.31998 | 3259 ft | 176 kts | 123° |
| 2026-05-06 20:13 | 50.06480 | 14.33487 | 3288 ft | 174 kts | 126° |
| 2026-05-06 20:13 | 50.05691 | 14.35105 | 3527 ft | 201 kts | 126° |
| 2026-05-06 20:13 | 50.04804 | 14.36930 | 3716 ft | 222 kts | 126° |
| 2026-05-06 20:13 | 50.03829 | 14.38937 | 3867 ft | 242 kts | 126° |
| 2026-05-06 20:14 | 50.02771 | 14.41112 | 4017 ft | 263 kts | 127° |
| 2026-05-06 20:14 | 50.01652 | 14.43409 | 4136 ft | 267 kts | 127° |
| 2026-05-06 20:14 | 50.00560 | 14.45756 | 4272 ft | 269 kts | 118° |
| 2026-05-06 20:14 | 50.00095 | 14.48498 | 4396 ft | 268 kts | 88° |
| 2026-05-06 20:15 | 50.00571 | 14.51277 | 4590 ft | 271 kts | 60° |
| 2026-05-06 20:15 | 50.01799 | 14.53500 | 5263 ft | 274 kts | 39° |
| 2026-05-06 20:15 | 50.03326 | 14.55272 | 6120 ft | 274 kts | 36° |
| 2026-05-06 20:15 | 50.04884 | 14.57011 | 6889 ft | 278 kts | 37° |
| 2026-05-06 20:16 | 50.06466 | 14.58795 | 7580 ft | 285 kts | 37° |
| 2026-05-06 20:16 | 50.08083 | 14.60642 | 8341 ft | 290 kts | 38° |
| 2026-05-06 20:16 | 50.09684 | 14.62614 | 9094 ft | 296 kts | 39° |
| 2026-05-06 20:16 | 50.11452 | 14.64307 | 9883 ft | 302 kts | 19° |
| 2026-05-06 20:17 | 50.13560 | 14.64788 | 10338 ft | 319 kts | 354° |
| 2026-05-06 20:17 | 50.15731 | 14.63756 | 10625 ft | 336 kts | 328° |
| 2026-05-06 20:17 | 50.17498 | 14.61401 | 11283 ft | 339 kts | 306° |
| 2026-05-06 20:17 | 50.18554 | 14.58147 | 12131 ft | 337 kts | 283° |
| 2026-05-06 20:18 | 50.18887 | 14.54544 | 13003 ft | 336 kts | 272° |
| 2026-05-06 20:18 | 50.18951 | 14.50889 | 13786 ft | 339 kts | 269° |
| 2026-05-06 20:18 | 50.18941 | 14.47173 | 14541 ft | 344 kts | 268° |
| 2026-05-06 20:18 | 50.18919 | 14.43430 | 15284 ft | 348 kts | 268° |
| 2026-05-06 20:19 | 50.18909 | 14.40915 | 15678 ft | 351 kts | 268° |
| 2026-05-06 20:19 | 50.18907 | 14.35827 | 16708 ft | 354 kts | 269° |
| 2026-05-06 20:19 | 50.18919 | 14.31972 | 17497 ft | 356 kts | 269° |
| 2026-05-06 20:19 | 50.18940 | 14.28077 | 18222 ft | 360 kts | 269° |
| 2026-05-06 20:20 | 50.18966 | 14.24148 | 18913 ft | 364 kts | 269° |
| 2026-05-06 20:20 | 50.18984 | 14.21515 | 19360 ft | 367 kts | 269° |
| 2026-05-06 20:20 | 50.19013 | 14.17517 | 20015 ft | 371 kts | 269° |
| 2026-05-06 20:20 | 50.19042 | 14.13471 | 20638 ft | 375 kts | 269° |
| 2026-05-06 20:21 | 50.19071 | 14.09378 | 21254 ft | 378 kts | 269° |
| 2026-05-06 20:21 | 50.19100 | 14.05260 | 21878 ft | 381 kts | 269° |
| 2026-05-06 20:21 | 50.19127 | 14.01089 | 22472 ft | 385 kts | 268° |
| 2026-05-06 20:21 | 50.19154 | 13.96898 | 23035 ft | 388 kts | 268° |
| 2026-05-06 20:22 | 50.19179 | 13.92654 | 23578 ft | 391 kts | 268° |
| 2026-05-06 20:22 | 50.19202 | 13.88438 | 24095 ft | 395 kts | 268° |
| 2026-05-06 20:22 | 50.19224 | 13.84129 | 24605 ft | 398 kts | 268° |
| 2026-05-06 20:22 | 50.19244 | 13.79794 | 25124 ft | 401 kts | 268° |
| 2026-05-06 20:23 | 50.19263 | 13.75422 | 25633 ft | 403 kts | 268° |
| 2026-05-06 20:23 | 50.19281 | 13.71036 | 26124 ft | 406 kts | 268° |
| 2026-05-06 20:23 | 50.19297 | 13.66606 | 26602 ft | 409 kts | 268° |
| 2026-05-06 20:23 | 50.19311 | 13.62200 | 27063 ft | 411 kts | 268° |
| 2026-05-06 20:24 | 50.19324 | 13.57718 | 27496 ft | 414 kts | 268° |
| 2026-05-06 20:24 | 50.19335 | 13.53271 | 27926 ft | 416 kts | 268° |
| 2026-05-06 20:24 | 50.19345 | 13.48687 | 28335 ft | 419 kts | 268° |
| 2026-05-06 20:24 | 50.19335 | 13.44180 | 28740 ft | 421 kts | 266° |
| 2026-05-06 20:25 | 50.19244 | 13.39606 | 29155 ft | 422 kts | 265° |
| 2026-05-06 20:25 | 50.19146 | 13.35018 | 29536 ft | 424 kts | 266° |
| 2026-05-06 20:25 | 50.19078 | 13.30392 | 29897 ft | 426 kts | 266° |
| 2026-05-06 20:25 | 50.19045 | 13.25767 | 30389 ft | 424 kts | 267° |
| 2026-05-06 20:26 | 50.19037 | 13.21168 | 30922 ft | 421 kts | 267° |
| 2026-05-06 20:26 | 50.19043 | 13.16656 | 31439 ft | 419 kts | 267° |
| 2026-05-06 20:26 | 50.19055 | 13.12115 | 31899 ft | 417 kts | 267° |
| 2026-05-06 20:26 | 50.19068 | 13.07597 | 32355 ft | 415 kts | 267° |
| 2026-05-06 20:27 | 50.19079 | 13.03105 | 32801 ft | 414 kts | 267° |
| 2026-05-06 20:27 | 50.19088 | 12.98615 | 33265 ft | 412 kts | 267° |
| 2026-05-06 20:27 | 50.19094 | 12.94159 | 33697 ft | 410 kts | 267° |
| 2026-05-06 20:27 | 50.19098 | 12.89715 | 34088 ft | 409 kts | 267° |
| 2026-05-06 20:28 | 50.19100 | 12.85276 | 34472 ft | 408 kts | 267° |
| 2026-05-06 20:28 | 50.19100 | 12.80852 | 34796 ft | 408 kts | 267° |
| 2026-05-06 20:28 | 50.19098 | 12.76409 | 35056 ft | 410 kts | 267° |
| 2026-05-06 20:28 | 50.19094 | 12.71935 | 35319 ft | 412 kts | 267° |
| 2026-05-06 20:29 | 50.19089 | 12.67475 | 35641 ft | 412 kts | 267° |
| 2026-05-06 20:29 | 50.19085 | 12.63040 | 35806 ft | 415 kts | 267° |
| 2026-05-06 20:29 | 50.19064 | 12.53892 | 35808 ft | 427 kts | 267° |
| 2026-05-06 20:30 | 50.19022 | 12.39776 | 35808 ft | 436 kts | 267° |
| 2026-05-06 20:31 | 50.18989 | 12.30294 | 35806 ft | 437 kts | 267° |
| 2026-05-06 20:31 | 50.18966 | 12.20795 | 35805 ft | 437 kts | 267° |
| 2026-05-06 20:32 | 50.18940 | 12.11390 | 35803 ft | 435 kts | 267° |
| 2026-05-06 20:32 | 50.18902 | 12.01977 | 35799 ft | 432 kts | 267° |
| 2026-05-06 20:33 | 50.18858 | 11.92631 | 35803 ft | 429 kts | 267° |
| 2026-05-06 20:33 | 50.18808 | 11.83350 | 35824 ft | 426 kts | 267° |
| 2026-05-06 20:34 | 50.18859 | 11.74102 | 35832 ft | 426 kts | 269° |
| 2026-05-06 20:34 | 50.19018 | 11.64920 | 35833 ft | 426 kts | 269° |
| 2026-05-06 20:35 | 50.19165 | 11.55654 | 35835 ft | 426 kts | 269° |
| 2026-05-06 20:35 | 50.19284 | 11.46384 | 35836 ft | 427 kts | 268° |
| 2026-05-06 20:36 | 50.19394 | 11.37086 | 35842 ft | 429 kts | 268° |
| 2026-05-06 20:36 | 50.19495 | 11.27792 | 35834 ft | 431 kts | 268° |
| 2026-05-06 20:37 | 50.19589 | 11.18414 | 35834 ft | 433 kts | 268° |
| 2026-05-06 20:37 | 50.19677 | 11.09008 | 35838 ft | 434 kts | 268° |
| 2026-05-06 20:38 | 50.19759 | 10.99566 | 35833 ft | 435 kts | 268° |
| 2026-05-06 20:38 | 50.19575 | 10.90140 | 35845 ft | 433 kts | 261° |
| 2026-05-06 20:39 | 50.19810 | 10.80770 | 35847 ft | 439 kts | 278° |
| 2026-05-06 20:39 | 50.21007 | 10.71387 | 35843 ft | 440 kts | 278° |
| 2026-05-06 20:40 | 50.22193 | 10.62007 | 35839 ft | 440 kts | 278° |
| 2026-05-06 20:40 | 50.23335 | 10.52660 | 35843 ft | 441 kts | 278° |
| 2026-05-06 20:41 | 50.24463 | 10.43229 | 35844 ft | 440 kts | 278° |
| 2026-05-06 20:41 | 50.25571 | 10.33821 | 35842 ft | 440 kts | 278° |
| 2026-05-06 20:42 | 50.26677 | 10.24411 | 35843 ft | 440 kts | 277° |
| 2026-05-06 20:42 | 50.27768 | 10.15064 | 35838 ft | 439 kts | 277° |
| 2026-05-06 20:43 | 50.28860 | 10.05658 | 35845 ft | 438 kts | 277° |
| 2026-05-06 20:43 | 50.29930 | 9.96287 | 35842 ft | 438 kts | 277° |
| 2026-05-06 20:44 | 50.31005 | 9.86890 | 35853 ft | 437 kts | 277° |
| 2026-05-06 20:44 | 50.32061 | 9.77572 | 35851 ft | 437 kts | 277° |
| 2026-05-06 20:45 | 50.33114 | 9.68183 | 35858 ft | 438 kts | 277° |
| 2026-05-06 20:45 | 50.34162 | 9.58781 | 35856 ft | 439 kts | 277° |
| 2026-05-06 20:46 | 50.35207 | 9.49352 | 35854 ft | 439 kts | 277° |
| 2026-05-06 20:46 | 50.36246 | 9.39903 | 35852 ft | 440 kts | 277° |
| 2026-05-06 20:47 | 50.37269 | 9.30506 | 35853 ft | 440 kts | 277° |
| 2026-05-06 20:47 | 50.38289 | 9.21057 | 35866 ft | 440 kts | 277° |
| 2026-05-06 20:48 | 50.39305 | 9.11586 | 35863 ft | 440 kts | 277° |
| 2026-05-06 20:48 | 50.40310 | 9.02123 | 35860 ft | 441 kts | 277° |
| 2026-05-06 20:49 | 50.41307 | 8.92685 | 35863 ft | 441 kts | 277° |
| 2026-05-06 20:49 | 50.42301 | 8.83190 | 35860 ft | 441 kts | 277° |
| 2026-05-06 20:50 | 50.43288 | 8.73679 | 35864 ft | 442 kts | 277° |
| 2026-05-06 20:50 | 50.44271 | 8.64147 | 35865 ft | 442 kts | 277° |
| 2026-05-06 20:51 | 50.45239 | 8.54621 | 35857 ft | 442 kts | 277° |
| 2026-05-06 20:51 | 50.46189 | 8.45110 | 35868 ft | 443 kts | 277° |
| 2026-05-06 20:52 | 50.47139 | 8.35533 | 35862 ft | 444 kts | 277° |
| 2026-05-06 20:52 | 50.48081 | 8.25959 | 35855 ft | 444 kts | 277° |
| 2026-05-06 20:53 | 50.49018 | 8.16360 | 35856 ft | 445 kts | 276° |
| 2026-05-06 20:53 | 50.49949 | 8.06733 | 35857 ft | 444 kts | 276° |
| 2026-05-06 20:54 | 50.50865 | 7.97192 | 35865 ft | 444 kts | 276° |
| 2026-05-06 20:54 | 50.51778 | 7.87590 | 35871 ft | 444 kts | 276° |
| 2026-05-06 20:55 | 50.52685 | 7.77961 | 35867 ft | 445 kts | 276° |
| 2026-05-06 20:55 | 50.53582 | 7.68342 | 35867 ft | 444 kts | 276° |
| 2026-05-06 20:56 | 50.54472 | 7.58726 | 35881 ft | 443 kts | 276° |
| 2026-05-06 20:56 | 50.55347 | 7.49190 | 35881 ft | 443 kts | 276° |
| 2026-05-06 20:56 | 50.55784 | 7.44379 | 35481 ft | 448 kts | 276° |
| 2026-05-06 20:57 | 50.56052 | 7.39503 | 34912 ft | 446 kts | 270° |
| 2026-05-06 20:57 | 50.56086 | 7.34631 | 34261 ft | 446 kts | 268° |
| 2026-05-06 20:57 | 50.56060 | 7.29755 | 33589 ft | 446 kts | 268° |
| 2026-05-06 20:57 | 50.56052 | 7.24864 | 32897 ft | 447 kts | 268° |
| 2026-05-06 20:58 | 50.56074 | 7.19971 | 32177 ft | 448 kts | 269° |
| 2026-05-06 20:58 | 50.56101 | 7.15071 | 31432 ft | 448 kts | 268° |
| 2026-05-06 20:58 | 50.56014 | 7.10161 | 30665 ft | 449 kts | 266° |
| 2026-05-06 20:58 | 50.55877 | 7.05251 | 29873 ft | 450 kts | 268° |
| 2026-05-06 20:59 | 50.56052 | 7.00309 | 29049 ft | 453 kts | 275° |
| 2026-05-06 20:59 | 50.56434 | 6.95460 | 28388 ft | 450 kts | 276° |
| 2026-05-06 20:59 | 50.56865 | 6.90606 | 27777 ft | 446 kts | 277° |
| 2026-05-06 20:59 | 50.57297 | 6.85795 | 27177 ft | 442 kts | 276° |
| 2026-05-06 21:00 | 50.57711 | 6.81026 | 26574 ft | 438 kts | 276° |
| 2026-05-06 21:00 | 50.58104 | 6.76301 | 25982 ft | 434 kts | 276° |
| 2026-05-06 21:00 | 50.58480 | 6.71611 | 25390 ft | 430 kts | 276° |
| 2026-05-06 21:00 | 50.58846 | 6.66956 | 24804 ft | 426 kts | 276° |
| 2026-05-06 21:01 | 50.59203 | 6.62344 | 24217 ft | 423 kts | 276° |
| 2026-05-06 21:01 | 50.59553 | 6.57770 | 23636 ft | 419 kts | 276° |
| 2026-05-06 21:01 | 50.59900 | 6.53231 | 23055 ft | 416 kts | 276° |
| 2026-05-06 21:01 | 50.60242 | 6.48719 | 22483 ft | 413 kts | 276° |
| 2026-05-06 21:02 | 50.60579 | 6.44245 | 21919 ft | 410 kts | 276° |
| 2026-05-06 21:02 | 50.60908 | 6.39864 | 21362 ft | 407 kts | 276° |
| 2026-05-06 21:02 | 50.61239 | 6.35436 | 20781 ft | 404 kts | 276° |
| 2026-05-06 21:02 | 50.61566 | 6.31044 | 20216 ft | 401 kts | 276° |
| 2026-05-06 21:03 | 50.61889 | 6.26685 | 19652 ft | 399 kts | 276° |
| 2026-05-06 21:03 | 50.62207 | 6.22364 | 19094 ft | 396 kts | 276° |
| 2026-05-06 21:03 | 50.62522 | 6.18071 | 18533 ft | 393 kts | 276° |
| 2026-05-06 21:03 | 50.62833 | 6.13808 | 17985 ft | 391 kts | 276° |
| 2026-05-06 21:04 | 50.63140 | 6.09564 | 17441 ft | 388 kts | 276° |
| 2026-05-06 21:04 | 50.63444 | 6.05357 | 16888 ft | 386 kts | 276° |
| 2026-05-06 21:04 | 50.63745 | 6.01172 | 16344 ft | 383 kts | 276° |
| 2026-05-06 21:04 | 50.64044 | 5.97012 | 15802 ft | 380 kts | 276° |
| 2026-05-06 21:05 | 50.64334 | 5.92943 | 15275 ft | 377 kts | 276° |
| 2026-05-06 21:05 | 50.64622 | 5.88847 | 14738 ft | 375 kts | 276° |
| 2026-05-06 21:05 | 50.64903 | 5.84784 | 14207 ft | 372 kts | 275° |
| 2026-05-06 21:05 | 50.65067 | 5.80728 | 13667 ft | 369 kts | 272° |
| 2026-05-06 21:06 | 50.65153 | 5.76690 | 13129 ft | 367 kts | 271° |
| 2026-05-06 21:06 | 50.65219 | 5.72682 | 12599 ft | 365 kts | 271° |
| 2026-05-06 21:06 | 50.65264 | 5.70040 | 12244 ft | 363 kts | 272° |
| 2026-05-06 21:06 | 50.65330 | 5.66063 | 11734 ft | 361 kts | 272° |
| 2026-05-06 21:07 | 50.65403 | 5.62112 | 11215 ft | 359 kts | 272° |
| 2026-05-06 21:07 | 50.65479 | 5.58182 | 10783 ft | 355 kts | 272° |
| 2026-05-06 21:07 | 50.65555 | 5.54363 | 10640 ft | 342 kts | 272° |
| 2026-05-06 21:07 | 50.65628 | 5.50682 | 10483 ft | 332 kts | 272° |
| 2026-05-06 21:08 | 50.65698 | 5.47097 | 10336 ft | 321 kts | 272° |
| 2026-05-06 21:08 | 50.65765 | 5.43636 | 10195 ft | 310 kts | 272° |
| 2026-05-06 21:08 | 50.65829 | 5.40291 | 10074 ft | 300 kts | 272° |
| 2026-05-06 21:08 | 50.65890 | 5.37058 | 9946 ft | 291 kts | 272° |
| 2026-05-06 21:09 | 50.65947 | 5.33985 | 9904 ft | 278 kts | 272° |
| 2026-05-06 21:09 | 50.66004 | 5.30906 | 9472 ft | 282 kts | 272° |
| 2026-05-06 21:09 | 50.66061 | 5.27816 | 9129 ft | 283 kts | 272° |
| 2026-05-06 21:09 | 50.66127 | 5.24717 | 8790 ft | 282 kts | 272° |
| 2026-05-06 21:10 | 50.66192 | 5.21664 | 8610 ft | 276 kts | 273° |
| 2026-05-06 21:10 | 50.66250 | 5.18665 | 8411 ft | 270 kts | 272° |
| 2026-05-06 21:10 | 50.66255 | 5.15716 | 8101 ft | 270 kts | 264° |
| 2026-05-06 21:10 | 50.65690 | 5.12876 | 7757 ft | 272 kts | 247° |
| 2026-05-06 21:11 | 50.64891 | 5.10176 | 7464 ft | 271 kts | 245° |
| 2026-05-06 21:11 | 50.64072 | 5.07505 | 7189 ft | 270 kts | 245° |
| 2026-05-06 21:11 | 50.63280 | 5.04868 | 6886 ft | 270 kts | 246° |
| 2026-05-06 21:11 | 50.62497 | 5.02150 | 6607 ft | 268 kts | 248° |
| 2026-05-06 21:12 | 50.61781 | 4.99486 | 6349 ft | 266 kts | 248° |
| 2026-05-06 21:12 | 50.61051 | 4.96820 | 6102 ft | 264 kts | 247° |
| 2026-05-06 21:12 | 50.60304 | 4.94210 | 5887 ft | 259 kts | 246° |
| 2026-05-06 21:12 | 50.59542 | 4.91621 | 5548 ft | 261 kts | 246° |
| 2026-05-06 21:13 | 50.58783 | 4.89041 | 5318 ft | 258 kts | 246° |
| 2026-05-06 21:13 | 50.58021 | 4.86501 | 5084 ft | 256 kts | 246° |
| 2026-05-06 21:13 | 50.57274 | 4.83968 | 4830 ft | 254 kts | 246° |
| 2026-05-06 21:13 | 50.56536 | 4.81464 | 4660 ft | 249 kts | 246° |
| 2026-05-06 21:14 | 50.55811 | 4.79000 | 4440 ft | 246 kts | 246° |
| 2026-05-06 21:14 | 50.55114 | 4.76624 | 4311 ft | 234 kts | 246° |
| 2026-05-06 21:14 | 50.54457 | 4.74381 | 4156 ft | 223 kts | 246° |
| 2026-05-06 21:14 | 50.53821 | 4.72209 | 3990 ft | 214 kts | 246° |
| 2026-05-06 21:15 | 50.53210 | 4.70110 | 3753 ft | 210 kts | 246° |
| 2026-05-06 21:15 | 50.52606 | 4.68045 | 3501 ft | 205 kts | 246° |
| 2026-05-06 21:15 | 50.52020 | 4.66036 | 3260 ft | 199 kts | 246° |
| 2026-05-06 21:15 | 50.51446 | 4.64071 | 2977 ft | 197 kts | 247° |
| 2026-05-06 21:16 | 50.50884 | 4.62116 | 2674 ft | 194 kts | 246° |
| 2026-05-06 21:16 | 50.50323 | 4.60192 | 2337 ft | 191 kts | 244° |
| 2026-05-06 21:16 | 50.49779 | 4.58339 | 2146 ft | 183 kts | 244° |
| 2026-05-06 21:16 | 50.49241 | 4.56557 | 1861 ft | 178 kts | 243° |
| 2026-05-06 21:17 | 50.48753 | 4.54875 | 1677 ft | 162 kts | 247° |
| 2026-05-06 21:17 | 50.48319 | 4.53326 | 1465 ft | 151 kts | 246° |
| 2026-05-06 21:17 | 50.47885 | 4.51836 | 1262 ft | 147 kts | 246° |
| 2026-05-06 21:17 | 50.47460 | 4.50381 | 1056 ft | 147 kts | 246° |
| 2026-05-06 21:18 | 50.47039 | 4.48924 | 880 ft | 149 kts | 246° |
| 2026-05-06 21:18 | 50.46614 | 4.47452 | 690 ft | 146 kts | 246° |
| 2026-05-06 21:18 | 50.46201 | 4.46033 | 592 ft | 129 kts | 246° |
| 2026-05-06 21:18 | 50.45924 | 4.45074 | 592 ft | 59 kts | 246° |
| 2026-05-06 21:19 | 50.45921 | 4.44800 | 596 ft | 23 kts | 326° |
| 2026-05-06 21:19 | 50.46046 | 4.44875 | 596 ft | 22 kts | 64° |
| 2026-05-06 21:19 | 50.46110 | 4.45093 | 595 ft | 22 kts | 64° |
| 2026-05-06 21:19 | 50.46172 | 4.45305 | 598 ft | 21 kts | 64° |
| 2026-05-06 21:20 | 50.46231 | 4.45510 | 598 ft | 20 kts | 65° |
| 2026-05-06 21:20 | 50.46292 | 4.45720 | 596 ft | 23 kts | 65° |
| 2026-05-06 21:20 | 50.46363 | 4.45962 | 595 ft | 26 kts | 65° |
| 2026-05-06 21:20 | 50.46447 | 4.46245 | 590 ft | 30 kts | 65° |
| 2026-05-06 21:21 | 50.46535 | 4.46560 | 589 ft | 31 kts | 65° |
| 2026-05-06 21:21 | 50.46624 | 4.46861 | 592 ft | 29 kts | 65° |
| 2026-05-06 21:21 | 50.46707 | 4.47144 | 591 ft | 28 kts | 65° |
| 2026-05-06 21:21 | 50.46759 | 4.47326 | 589 ft | 11 kts | 56° |
| 2026-05-06 21:22 | 50.46831 | 4.47341 | 586 ft | 11 kts | 352° |
| 2026-05-06 21:22 | 50.46905 | 4.47304 | 583 ft | 11 kts | 335° |
| 2026-05-06 21:22 | 50.46926 | 4.47289 | 584 ft | 0 kts | 335° |